Time;durP1;ratioP1;P1;durP2;ratioP2;P2;SDS_P1;SDS_P2;PMS_P1;PMS_P2;Temp;Humidity;BMP_temperature;BMP_pressure;BME280_temperature;BME280_humidity;BME280_pressure;Samples;Min_cycle;Max_cycle;Signal;HPM_P1;HPM_P2
2022/12/21 00:00:13;;;;;;;40.72;26.80;;;8.40;99.90;;;;;;4940235;28;93741;-31
2022/12/21 00:02:39;;;;;;;90.78;32.08;;;8.40;99.90;;;;;;4939291;28;94266;-33
2022/12/21 00:05:06;;;;;;;49.58;26.30;;;8.30;99.90;;;;;;4940298;28;94040;-33
2022/12/21 00:07:32;;;;;;;38.95;25.42;;;8.40;99.90;;;;;;4938354;28;93521;-32
2022/12/21 00:09:57;;;;;;;55.95;28.25;;;8.30;99.90;;;;;;4939832;28;92211;-34
2022/12/21 00:12:23;;;;;;;57.38;30.23;;;8.40;99.90;;;;;;4939314;28;94387;-36
2022/12/21 00:14:49;;;;;;;49.55;26.50;;;8.40;99.90;;;;;;4930668;28;93960;-36
2022/12/21 00:17:16;;;;;;;93.53;28.65;;;8.30;99.90;;;;;;4935311;28;94510;-32
2022/12/21 00:19:43;;;;;;;75.35;32.55;;;8.30;99.90;;;;;;4938203;28;93764;-33
2022/12/21 00:22:09;;;;;;;36.20;24.52;;;8.20;99.90;;;;;;4938688;28;94759;-34
2022/12/21 00:24:34;;;;;;;137.48;35.67;;;8.20;99.90;;;;;;4939712;28;94655;-35
2022/12/21 00:27:01;;;;;;;83.50;34.83;;;8.10;99.90;;;;;;4939502;28;93699;-34
2022/12/21 00:29:26;;;;;;;52.17;27.83;;;8.10;99.90;;;;;;4938683;28;92470;-33
2022/12/21 00:31:53;;;;;;;118.35;34.50;;;8.10;99.90;;;;;;4938041;28;95733;-32
2022/12/21 00:34:21;;;;;;;138.23;41.35;;;8.10;99.90;;;;;;4938427;28;95135;-32
2022/12/21 00:36:48;;;;;;;56.03;28.40;;;8.00;99.90;;;;;;4939477;28;93227;-33
2022/12/21 00:39:14;;;;;;;44.88;26.52;;;8.00;99.90;;;;;;4939630;28;94383;-34
2022/12/21 00:41:40;;;;;;;69.55;32.00;;;7.90;99.90;;;;;;4937928;28;94533;-33
2022/12/21 00:44:06;;;;;;;45.75;25.33;;;7.90;99.90;;;;;;4938819;28;94078;-33
2022/12/21 00:46:32;;;;;;;41.05;27.65;;;7.90;99.90;;;;;;4939009;28;93306;-32
2022/12/21 00:49:00;;;;;;;42.00;29.15;;;8.00;99.90;;;;;;4938659;28;93462;-32
2022/12/21 00:51:27;;;;;;;52.13;28.50;;;8.00;99.90;;;;;;4939130;28;95433;-31
2022/12/21 00:53:55;;;;;;;60.55;32.05;;;8.00;99.90;;;;;;4938686;28;94582;-35
2022/12/21 00:56:21;;;;;;;62.40;33.53;;;8.00;99.90;;;;;;4938531;28;95619;-32
2022/12/21 00:58:48;;;;;;;47.60;30.02;;;8.10;99.90;;;;;;4937968;28;94561;-31
2022/12/21 01:01:22;;;;;;;70.88;29.73;;;8.10;99.90;;;;;;4939052;28;95073;-33
2022/12/21 01:03:49;;;;;;;60.83;28.88;;;8.00;99.90;;;;;;4938005;28;94644;-34
2022/12/21 01:06:16;;;;;;;108.68;35.92;;;8.00;99.90;;;;;;4938782;28;92175;-35
2022/12/21 01:08:42;;;;;;;49.50;28.13;;;8.00;99.90;;;;;;4938548;28;93203;-32
2022/12/21 01:11:10;;;;;;;71.22;30.40;;;8.00;99.90;;;;;;4938593;28;96292;-32
2022/12/21 01:13:35;;;;;;;47.60;28.33;;;8.00;99.90;;;;;;4938454;28;94330;-31
2022/12/21 01:16:01;;;;;;;60.15;29.00;;;7.90;99.90;;;;;;4925068;28;94705;-32
2022/12/21 01:18:26;;;;;;;57.47;29.73;;;7.90;99.90;;;;;;4938527;28;94109;-32
2022/12/21 01:20:54;;;;;;;54.67;28.83;;;7.90;99.90;;;;;;4937890;28;95174;-36
2022/12/21 01:23:20;;;;;;;55.77;26.50;;;8.00;99.90;;;;;;4938729;28;95050;-35
2022/12/21 01:25:46;;;;;;;56.85;29.70;;;7.90;99.90;;;;;;4938046;28;92605;-35
2022/12/21 01:28:12;;;;;;;50.47;27.58;;;7.90;99.90;;;;;;4937810;28;93433;-34
2022/12/21 01:30:38;;;;;;;65.25;30.02;;;7.90;99.90;;;;;;4937987;28;96247;-35
2022/12/21 01:33:23;;;;;;;57.00;30.13;;;8.00;99.90;;;;;;4937752;28;94590;-33
2022/12/21 01:35:48;;;;;;;54.65;26.80;;;8.00;99.90;;;;;;4938879;28;92066;-32
2022/12/21 01:38:14;;;;;;;48.30;24.50;;;7.90;99.90;;;;;;4938367;28;94288;-32
2022/12/21 01:40:40;;;;;;;52.95;27.42;;;8.00;99.90;;;;;;4937587;28;94515;-34
2022/12/21 01:43:18;;;;;;;42.03;24.25;;;7.90;99.90;;;;;;4937783;28;95192;-33
2022/12/21 01:45:49;;;;;;;39.65;22.92;;;7.90;99.90;;;;;;4938266;28;93189;-32
2022/12/21 01:48:19;;;;;;;51.08;26.33;;;7.90;99.90;;;;;;4938103;28;94558;-32
2022/12/21 01:50:48;;;;;;;64.45;26.60;;;7.80;99.90;;;;;;4937936;28;94614;-34
2022/12/21 01:53:25;;;;;;;64.40;27.30;;;7.80;99.90;;;;;;4927663;28;94319;-32
2022/12/21 01:55:53;;;;;;;57.92;29.02;;;7.80;99.90;;;;;;4937655;28;93635;-32
2022/12/21 01:58:19;;;;;;;;;;;7.80;99.90;;;;;;4945648;28;94271;-31
2022/12/21 02:00:45;;;;;;;77.80;32.67;;;7.80;99.90;;;;;;4939859;28;94267;-33
2022/12/21 02:03:16;;;;;;;76.47;30.60;;;7.80;99.90;;;;;;4930661;28;94635;-33
2022/12/21 02:06:06;;;;;;;51.42;28.35;;;7.80;99.90;;;;;;4938113;28;92874;-33
2022/12/21 02:08:31;;;;;;;50.08;26.17;;;7.80;99.90;;;;;;4937907;28;94134;-33
2022/12/21 02:10:58;;;;;;;78.85;29.58;;;7.80;99.90;;;;;;4923571;28;94489;-34
2022/12/21 02:13:24;;;;;;;66.00;27.75;;;7.80;99.90;;;;;;4935407;28;94967;-34
2022/12/21 02:16:45;;;;;;;65.93;27.98;;;7.80;99.90;;;;;;4937860;28;93409;-32
2022/12/21 02:19:47;;;;;;;47.97;26.52;;;7.80;99.90;;;;;;4926425;28;94489;-35
2022/12/21 02:22:29;;;;;;;78.43;29.77;;;7.80;99.90;;;;;;4937594;28;97092;-32
2022/12/21 02:25:01;;;;;;;57.17;27.42;;;7.70;99.90;;;;;;4937650;28;94385;-35
2022/12/21 02:27:45;;;;;;;70.93;26.88;;;7.80;99.90;;;;;;4923055;28;93265;-33
2022/12/21 02:30:19;;;;;;;79.18;26.33;;;7.80;99.90;;;;;;4938217;28;92380;-31
2022/12/21 02:33:13;;;;;;;66.93;25.98;;;7.70;99.90;;;;;;4935585;28;94634;-32
2022/12/21 02:36:10;;;;;;;46.45;23.13;;;7.70;99.90;;;;;;4936923;28;94573;-33
2022/12/21 02:38:57;;;;;;;55.85;25.55;;;7.70;99.90;;;;;;4932640;28;94167;-33
2022/12/21 02:41:48;;;;;;;65.82;24.50;;;7.70;99.90;;;;;;4935947;28;92627;-33
2022/12/21 02:44:34;;;;;;;48.47;24.50;;;7.70;99.90;;;;;;4937708;28;94814;-33
2022/12/21 02:47:05;;;;;;;46.55;22.17;;;7.60;99.90;;;;;;4937262;28;95122;-32
2022/12/21 02:49:52;;;;;;;56.67;24.25;;;7.70;99.90;;;;;;4937247;28;93338;-34
2022/12/21 02:52:41;;;;;;;72.03;25.33;;;7.60;99.90;;;;;;4937509;28;93269;-32
2022/12/21 02:55:10;;;;;;;54.90;22.35;;;7.60;99.90;;;;;;4937357;28;93798;-32
2022/12/21 02:57:39;;;;;;;65.15;26.48;;;7.60;99.90;;;;;;4937291;28;94304;-33
2022/12/21 03:00:11;;;;;;;61.25;24.75;;;7.60;99.90;;;;;;4934406;28;94499;-33
2022/12/21 03:03:47;;;;;;;51.08;23.70;;;7.60;99.90;;;;;;4927146;28;93547;-33
2022/12/21 03:05:55;;;;;;;64.30;28.13;;;7.60;99.90;;;;;;4935724;28;97814;-33
2022/12/21 03:08:43;;;;;;;48.72;22.38;;;7.60;99.90;;;;;;4936708;28;95451;-31
2022/12/21 03:11:09;;;;;;;46.15;22.67;;;7.60;99.90;;;;;;4937339;28;94509;-34
2022/12/21 03:13:44;;;;;;;66.22;24.02;;;7.60;99.90;;;;;;4936329;28;92826;-32
2022/12/21 03:16:15;;;;;;;49.08;23.20;;;7.50;99.90;;;;;;4937123;28;95112;-34
2022/12/21 03:19:03;;;;;;;49.38;24.48;;;7.50;99.90;;;;;;4936510;28;94411;-34
2022/12/21 03:21:34;;;;;;;65.70;25.67;;;7.50;99.90;;;;;;4936770;28;92543;-33
2022/12/21 03:24:28;;;;;;;73.95;25.23;;;7.50;99.90;;;;;;4936829;28;93468;-32
2022/12/21 03:26:59;;;;;;;79.68;25.88;;;7.50;99.90;;;;;;4934304;28;94508;-32
2022/12/21 03:29:36;;;;;;;54.08;25.15;;;7.50;99.90;;;;;;4939426;28;94498;-34
2022/12/21 03:32:14;;;;;;;70.95;26.40;;;7.50;99.90;;;;;;4940350;28;95396;-32
2022/12/21 03:34:45;;;;;;;60.95;27.15;;;7.50;99.90;;;;;;4935364;28;94312;-35
2022/12/21 03:37:12;;;;;;;66.47;27.00;;;7.50;99.90;;;;;;4934559;28;94756;-33
2022/12/21 03:39:43;;;;;;;54.38;25.15;;;7.50;99.90;;;;;;4939908;28;94162;-32
2022/12/21 03:42:23;;;;;;;62.60;24.67;;;7.50;99.90;;;;;;4939885;28;92099;-34
2022/12/21 03:45:09;;;;;;;66.25;26.52;;;7.50;99.90;;;;;;4940342;28;92181;-33
2022/12/21 03:47:55;;;;;;;75.88;26.52;;;7.50;99.90;;;;;;4939365;28;94456;-32
2022/12/21 03:50:25;;;;;;;60.78;26.15;;;7.50;99.90;;;;;;4940902;28;93976;-32
2022/12/21 03:53:04;;;;;;;47.80;23.30;;;7.50;99.90;;;;;;4939398;28;93290;-31
2022/12/21 03:55:35;;;;;;;61.25;22.38;;;7.50;99.90;;;;;;4939359;28;94684;-32
2022/12/21 03:58:02;;;;;;;58.40;23.00;;;7.50;99.90;;;;;;4938791;28;94549;-33
2022/12/21 04:00:35;;;;;;;89.10;26.17;;;7.50;99.90;;;;;;4933305;28;95644;-33
2022/12/21 04:03:22;;;;;;;55.42;23.80;;;7.50;99.90;;;;;;4932880;28;94258;-34
2022/12/21 04:05:57;;;;;;;78.22;28.63;;;7.50;99.90;;;;;;4934116;28;94703;-31
2022/12/21 04:08:25;;;;;;;67.03;28.30;;;7.40;99.90;;;;;;4934959;28;95010;-32
2022/12/21 04:10:52;;;;;;;66.57;27.38;;;7.40;99.90;;;;;;4940219;28;94524;-31
2022/12/21 04:13:17;;;;;;;152.50;37.25;;;7.40;99.90;;;;;;4939592;28;92688;-31
2022/12/21 04:21:11;;;;;;;139.07;38.08;;;7.40;99.90;;;;;;4939177;28;94720;-36
2022/12/21 04:29:06;;;;;;;143.07;39.25;;;7.40;99.90;;;;;;4938657;28;94657;-31
2022/12/21 04:31:31;;;;;;;108.53;38.15;;;7.40;99.90;;;;;;4938736;28;94506;-32
2022/12/21 04:33:57;;;;;;;112.25;36.35;;;7.40;99.90;;;;;;4939737;28;92580;-31
2022/12/21 04:39:07;;;;;;;117.75;33.55;;;7.40;99.90;;;;;;4937425;28;95115;-34
2022/12/21 04:41:33;;;;;;;128.43;35.53;;;7.40;99.90;;;;;;4938661;28;94701;-33
2022/12/21 04:43:59;;;;;;;174.13;38.33;;;7.40;99.90;;;;;;4938998;28;93219;-33
2022/12/21 04:46:25;;;;;;;189.80;39.97;;;7.30;99.90;;;;;;4939279;28;92098;-33
2022/12/21 04:48:50;;;;;;;168.63;41.63;;;7.40;99.90;;;;;;4938612;28;95938;-33
2022/12/21 04:51:22;;;;;;;162.60;38.88;;;7.40;99.90;;;;;;4938869;28;95324;-32
2022/12/21 04:53:48;;;;;;;239.80;45.20;;;7.40;99.90;;;;;;4938635;28;94126;-31
2022/12/21 04:56:15;;;;;;;85.68;31.05;;;7.30;99.90;;;;;;4939250;28;93975;-32
2022/12/21 04:58:41;;;;;;;83.97;34.25;;;7.40;99.90;;;;;;4938507;28;94619;-33
2022/12/21 05:01:09;;;;;;;147.30;42.60;;;7.30;99.90;;;;;;4927414;28;93983;-32
2022/12/21 05:03:34;;;;;;;92.93;33.35;;;7.40;99.90;;;;;;4936325;28;94375;-33
2022/12/21 05:06:00;;;;;;;163.95;41.40;;;7.40;99.90;;;;;;4938898;28;92515;-31
2022/12/21 05:08:25;;;;;;;99.32;37.70;;;7.30;99.90;;;;;;4937853;28;94150;-33
2022/12/21 05:10:51;;;;;;;94.75;35.85;;;7.40;99.90;;;;;;4938872;28;94525;-32
2022/12/21 05:13:17;;;;;;;256.70;52.63;;;7.40;99.90;;;;;;4938248;28;94345;-34
2022/12/21 05:15:42;;;;;;;91.13;35.20;;;7.40;99.90;;;;;;4938775;28;93002;-32
2022/12/21 05:18:08;;;;;;;202.80;46.15;;;7.30;99.90;;;;;;4938375;28;94513;-33
2022/12/21 05:20:34;;;;;;;226.90;50.17;;;7.30;99.90;;;;;;4938505;28;95326;-32
2022/12/21 05:22:59;;;;;;;173.90;44.30;;;7.30;99.90;;;;;;4939049;28;93141;-32
2022/12/21 05:25:25;;;;;;;119.68;40.70;;;7.40;99.90;;;;;;4937446;28;93122;-33
2022/12/21 05:27:50;;;;;;;153.68;41.85;;;7.40;99.90;;;;;;4938651;28;94664;-34
2022/12/21 05:30:16;;;;;;;94.15;35.88;;;7.40;99.90;;;;;;4938158;28;94689;-32
2022/12/21 05:32:42;;;;;;;320.17;59.75;;;7.30;99.90;;;;;;4922079;28;92207;-31
2022/12/21 05:35:08;;;;;;;96.78;38.40;;;7.40;99.90;;;;;;4935283;28;92668;-31
2022/12/21 05:37:33;;;;;;;276.48;56.05;;;7.40;99.90;;;;;;4940166;28;95300;-34
2022/12/21 05:39:59;;;;;;;134.88;40.13;;;7.40;99.90;;;;;;4940999;28;95726;-32
2022/12/21 05:42:24;;;;;;;333.02;57.53;;;7.40;99.90;;;;;;4943653;28;93147;-31
2022/12/21 05:44:50;;;;;;;231.55;51.55;;;7.40;99.90;;;;;;4941961;28;93650;-32
2022/12/21 05:47:16;;;;;;;232.65;53.45;;;7.40;99.90;;;;;;4942434;28;95011;-32
2022/12/21 05:49:41;;;;;;;81.25;37.67;;;7.40;99.90;;;;;;4940909;28;94404;-34
2022/12/21 05:52:07;;;;;;;99.55;41.53;;;7.30;99.90;;;;;;4939987;28;93302;-32
2022/12/21 05:54:32;;;;;;;100.30;42.50;;;7.30;99.90;;;;;;4943139;28;93373;-33
2022/12/21 05:56:58;;;;;;;174.35;48.40;;;7.30;99.90;;;;;;4941540;28;94954;-31
2022/12/21 05:59:23;;;;;;;118.75;41.10;;;7.30;99.90;;;;;;4942657;28;94611;-35
2022/12/21 06:01:49;;;;;;;98.65;39.60;;;7.40;99.90;;;;;;4924092;28;93356;-33
2022/12/21 06:04:15;;;;;;;160.27;48.70;;;7.40;99.90;;;;;;4937500;28;92216;-33
2022/12/21 06:06:40;;;;;;;139.68;46.10;;;7.40;99.90;;;;;;4937504;28;94486;-32
2022/12/21 06:09:06;;;;;;;180.18;50.72;;;7.40;99.90;;;;;;4938308;28;94296;-31
2022/12/21 06:11:32;;;;;;;140.82;47.58;;;7.40;99.90;;;;;;4937400;28;92119;-32
2022/12/21 06:13:58;;;;;;;162.73;48.80;;;7.40;99.90;;;;;;4937865;28;94362;-32
2022/12/21 06:16:25;;;;;;;90.63;40.30;;;7.40;99.90;;;;;;4937490;28;94696;-36
2022/12/21 06:18:51;;;;;;;113.28;42.90;;;7.40;99.90;;;;;;4938244;28;94711;-32
2022/12/21 06:21:17;;;;;;;118.93;44.90;;;7.50;99.90;;;;;;4938698;28;94558;-32
2022/12/21 06:23:45;;;;;;;79.47;38.03;;;7.50;99.90;;;;;;4937839;28;93518;-34
2022/12/21 06:26:14;;;;;;;92.22;40.15;;;7.50;99.90;;;;;;4937048;28;95640;-32
2022/12/21 06:28:39;;;;;;;97.25;42.28;;;7.50;99.90;;;;;;4936720;28;94353;-34
2022/12/21 06:31:11;;;;;;;148.45;45.47;;;7.50;99.90;;;;;;4938000;28;94192;-33
2022/12/21 06:33:37;;;;;;;111.53;43.20;;;7.50;99.90;;;;;;4938167;28;92539;-33
2022/12/21 06:36:04;;;;;;;144.85;47.03;;;7.50;99.90;;;;;;4936714;28;94211;-31
2022/12/21 06:38:30;;;;;;;130.13;43.22;;;7.50;99.90;;;;;;4937193;28;94040;-36
2022/12/21 06:40:58;;;;;;;109.30;46.00;;;7.50;99.90;;;;;;4937241;28;93348;-34
2022/12/21 06:43:28;;;;;;;97.55;39.75;;;7.50;99.90;;;;;;4937325;28;92156;-34
2022/12/21 06:45:59;;;;;;;96.60;38.22;;;7.50;99.90;;;;;;4937483;28;94679;-32
2022/12/21 06:48:26;;;;;;;90.88;45.15;;;7.50;99.90;;;;;;4936699;28;95140;-34
2022/12/21 06:51:00;;;;;;;95.50;40.95;;;7.50;99.90;;;;;;4937213;28;93672;-33
2022/12/21 06:53:29;;;;;;;117.78;41.05;;;7.50;99.90;;;;;;4936810;28;92271;-34
2022/12/21 06:56:16;;;;;;;116.43;42.50;;;7.50;99.90;;;;;;4938008;28;93518;-32
2022/12/21 06:58:41;;;;;;;92.45;37.17;;;7.50;99.90;;;;;;4936961;28;95028;-33
2022/12/21 07:01:10;;;;;;;110.78;42.97;;;7.60;99.90;;;;;;4925949;28;94819;-31
2022/12/21 07:03:36;;;;;;;;;;;7.60;99.90;;;;;;4933990;28;92087;-33
2022/12/21 07:06:02;;;;;;;138.20;43.92;;;7.60;99.90;;;;;;4938453;28;94118;-34
2022/12/21 07:08:28;;;;;;;93.55;39.78;;;7.50;99.90;;;;;;4937024;28;94556;-35
2022/12/21 07:10:58;;;;;;;127.15;45.00;;;7.50;99.90;;;;;;4937407;28;93677;-33
2022/12/21 07:13:25;;;;;;;146.95;44.85;;;7.50;99.90;;;;;;4936933;28;94348;-34
2022/12/21 07:15:51;;;;;;;85.55;39.60;;;7.50;99.90;;;;;;4936580;28;96251;-32
2022/12/21 07:18:16;;;;;;;141.52;46.33;;;7.50;99.90;;;;;;4936516;28;95996;-31
2022/12/21 07:20:42;;;;;;;104.38;40.08;;;7.50;99.90;;;;;;4937218;28;92808;-33
2022/12/21 07:23:07;;;;;;;128.30;43.80;;;7.50;99.90;;;;;;4937195;28;94287;-32
2022/12/21 07:25:33;;;;;;;172.93;44.85;;;7.50;99.90;;;;;;4936930;28;94615;-35
2022/12/21 07:27:59;;;;;;;160.32;46.08;;;7.50;99.90;;;;;;4936846;28;93877;-32
2022/12/21 07:30:24;;;;;;;102.95;40.58;;;7.50;99.90;;;;;;4936031;28;92476;-32
2022/12/21 07:32:53;;;;;;;99.38;41.90;;;7.50;99.90;;;;;;4937830;28;92843;-32
2022/12/21 07:35:22;;;;;;;89.43;40.78;;;7.50;99.90;;;;;;4936046;28;94375;-32
2022/12/21 07:37:49;;;;;;;85.13;39.70;;;7.50;99.90;;;;;;4937380;28;93911;-31
2022/12/21 07:40:17;;;;;;;99.30;41.67;;;7.50;99.90;;;;;;4935980;28;94315;-34
2022/12/21 07:42:46;;;;;;;100.72;40.70;;;7.50;99.90;;;;;;4936302;28;94594;-32
2022/12/21 07:45:13;;;;;;;91.50;41.72;;;7.50;99.90;;;;;;4935060;28;94557;-32
2022/12/21 07:47:39;;;;;;;121.40;45.75;;;7.50;99.90;;;;;;4936745;28;94526;-32
2022/12/21 07:50:07;;;;;;;120.88;44.65;;;7.50;99.90;;;;;;4936839;28;93548;-32
2022/12/21 07:52:33;;;;;;;95.93;41.47;;;7.50;99.90;;;;;;4935921;28;93305;-33
2022/12/21 07:54:59;;;;;;;98.82;45.40;;;7.50;99.90;;;;;;4936349;28;94560;-35
2022/12/21 07:57:25;;;;;;;101.63;41.90;;;7.50;99.90;;;;;;4936802;28;93219;-31
2022/12/21 07:59:50;;;;;;;116.68;44.67;;;7.50;99.90;;;;;;4935951;28;92904;-35
2022/12/21 08:02:16;;;;;;;214.02;55.95;;;7.50;99.90;;;;;;4924072;28;93803;-31
2022/12/21 08:04:42;;;;;;;156.73;48.80;;;7.40;99.90;;;;;;4935362;28;94171;-32
2022/12/21 08:07:08;;;;;;;122.50;46.90;;;7.50;99.90;;;;;;4936356;28;95606;-33
2022/12/21 08:09:34;;;;;;;124.85;45.47;;;7.40;99.90;;;;;;4936357;28;93525;-33
2022/12/21 08:11:59;;;;;;;109.93;43.22;;;7.50;99.90;;;;;;4936036;28;94231;-32
2022/12/21 08:14:25;;;;;;;113.03;44.58;;;7.50;99.90;;;;;;4937972;28;94204;-33
2022/12/21 08:16:51;;;;;;;130.48;45.60;;;7.40;99.90;;;;;;4938719;28;95162;-33
2022/12/21 08:19:16;;;;;;;89.72;40.97;;;7.50;99.90;;;;;;4940098;28;93385;-33
2022/12/21 08:21:42;;;;;;;110.13;41.25;;;7.50;99.90;;;;;;4940424;28;94177;-32
2022/12/21 08:24:08;;;;;;;106.57;45.53;;;7.50;99.90;;;;;;4939876;28;95046;-32
2022/12/21 08:26:33;;;;;;;111.20;43.13;;;7.50;99.90;;;;;;4939589;28;93599;-33
2022/12/21 08:28:59;;;;;;;82.32;39.53;;;7.50;99.90;;;;;;4938544;28;95507;-34
2022/12/21 08:31:25;;;;;;;90.82;38.67;;;7.50;99.90;;;;;;4940108;28;94771;-32
2022/12/21 08:33:51;;;;;;;85.88;40.80;;;7.50;99.90;;;;;;4939615;28;94642;-31
2022/12/21 08:36:19;;;;;;;113.93;42.97;;;7.50;99.90;;;;;;4940666;28;94594;-32
2022/12/21 08:38:45;;;;;;;91.47;42.63;;;7.60;99.90;;;;;;4939900;28;94139;-31
2022/12/21 08:41:11;;;;;;;98.30;42.25;;;7.60;99.90;;;;;;4939087;28;94488;-33
2022/12/21 08:43:37;;;;;;;77.38;41.10;;;7.60;99.90;;;;;;4939201;28;94691;-35
2022/12/21 08:46:07;;;;;;;90.35;41.13;;;7.50;99.90;;;;;;4940319;28;95673;-32
2022/12/21 08:48:34;;;;;;;112.78;44.78;;;7.50;99.90;;;;;;4939682;28;92812;-33
2022/12/21 08:51:00;;;;;;;91.45;41.72;;;7.60;99.90;;;;;;4939065;28;92391;-34
2022/12/21 08:53:26;;;;;;;123.45;47.55;;;7.60;99.90;;;;;;4938733;28;96345;-33
2022/12/21 08:55:52;;;;;;;83.78;38.95;;;7.60;99.90;;;;;;4939112;28;96328;-33
2022/12/21 08:58:18;;;;;;;79.45;41.38;;;7.60;99.90;;;;;;4925109;28;93229;-34
2022/12/21 09:00:44;;;;;;;92.55;40.20;;;7.60;99.90;;;;;;4931434;28;94213;-32
2022/12/21 09:03:10;;;;;;;83.97;42.13;;;7.50;99.90;;;;;;4932508;28;94510;-32
2022/12/21 09:05:37;;;;;;;90.03;42.95;;;7.50;99.90;;;;;;4938379;28;94398;-32
2022/12/21 09:08:03;;;;;;;74.93;40.05;;;7.60;99.90;;;;;;4939564;28;94531;-31
2022/12/21 09:10:29;;;;;;;113.22;45.97;;;7.60;99.90;;;;;;4939018;28;93060;-33
2022/12/21 09:12:58;;;;;;;84.60;44.10;;;7.60;99.90;;;;;;4938730;28;94575;-34
2022/12/21 09:15:23;;;;;;;96.88;45.42;;;7.60;99.90;;;;;;4938343;28;94099;-37
2022/12/21 09:17:50;;;;;;;88.20;40.35;;;7.60;99.90;;;;;;4938343;28;94185;-32
2022/12/21 09:20:16;;;;;;;84.88;40.95;;;7.70;99.90;;;;;;4938857;28;94363;-34
2022/12/21 09:22:41;;;;;;;96.20;41.72;;;7.60;99.90;;;;;;4938904;28;94544;-34
2022/12/21 09:25:07;;;;;;;84.07;41.22;;;7.70;99.90;;;;;;4937079;28;94619;-32
2022/12/21 09:27:33;;;;;;;66.78;38.63;;;7.70;99.90;;;;;;4938551;28;93853;-33
2022/12/21 09:29:59;;;;;;;90.15;42.63;;;7.70;99.90;;;;;;4960888;22;94113;-33
2022/12/21 09:32:25;;;;;;;98.07;42.22;;;7.70;99.90;;;;;;4919009;28;94915;-34
2022/12/21 09:34:51;;;;;;;75.13;41.80;;;7.70;99.90;;;;;;4919427;28;94620;-33
2022/12/21 09:37:17;;;;;;;72.43;40.08;;;7.70;99.90;;;;;;4918872;28;93699;-35
2022/12/21 09:39:43;;;;;;;73.13;36.30;;;7.80;99.90;;;;;;4918820;28;93447;-33
2022/12/21 09:42:24;;;;;;;68.70;37.88;;;7.80;99.90;;;;;;4917896;28;95360;-34
2022/12/21 09:44:49;;;;;;;66.90;38.63;;;7.70;99.90;;;;;;4919578;28;96104;-33
2022/12/21 09:47:20;;;;;;;70.07;39.53;;;7.80;99.90;;;;;;4919157;28;93418;-33
2022/12/21 09:49:54;;;;;;;80.47;37.35;;;7.80;99.90;;;;;;4918296;28;94764;-32
2022/12/21 09:52:41;;;;;;;72.57;40.33;;;7.70;99.90;;;;;;4919082;28;92894;-33
2022/12/21 09:55:22;;;;;;;73.18;40.88;;;7.70;99.90;;;;;;4918836;28;95350;-31
2022/12/21 09:57:52;;;;;;;73.82;40.88;;;7.70;99.90;;;;;;4918762;28;93084;-34
2022/12/21 10:00:23;;;;;;;66.85;37.95;;;7.70;99.90;;;;;;4919032;28;92518;-33
2022/12/21 10:03:10;;;;;;;68.80;40.05;;;7.70;99.90;;;;;;4917794;28;95782;-34
2022/12/21 10:06:11;;;;;;;73.32;41.00;;;7.70;99.90;;;;;;4917805;28;94140;-35
2022/12/21 10:09:04;;;;;;;65.65;40.75;;;7.80;99.90;;;;;;4917880;28;95778;-34
2022/12/21 10:11:33;;;;;;;60.08;35.78;;;7.80;99.90;;;;;;4918320;28;94452;-32
2022/12/21 10:14:07;;;;;;;66.43;39.20;;;7.80;99.90;;;;;;4918166;28;94212;-34
2022/12/21 10:16:49;;;;;;;70.95;39.85;;;7.80;99.90;;;;;;4917793;28;94580;-34
2022/12/21 10:19:38;;;;;;;72.50;41.45;;;7.80;99.90;;;;;;4919494;28;92113;-32
2022/12/21 10:22:23;;;;;;;70.13;40.55;;;7.80;99.90;;;;;;4918891;28;93284;-34
2022/12/21 10:24:56;;;;;;;60.50;37.35;;;7.80;99.90;;;;;;4918036;28;94390;-32
2022/12/21 10:27:27;;;;;;;68.53;37.85;;;7.80;99.90;;;;;;4918242;28;94791;-33
2022/12/21 10:29:56;;;;;;;61.65;39.67;;;7.80;99.90;;;;;;4918076;28;93521;-33
2022/12/21 10:32:24;;;;;;;62.13;37.08;;;7.90;99.90;;;;;;4918178;28;92920;-33
2022/12/21 10:34:53;;;;;;;60.57;36.03;;;7.90;99.90;;;;;;4917734;28;97332;-32
2022/12/21 10:37:20;;;;;;;67.35;35.30;;;7.90;99.90;;;;;;4917399;28;95727;-33
2022/12/21 10:39:56;;;;;;;61.67;39.33;;;7.90;99.90;;;;;;4917645;28;92303;-33
2022/12/21 10:42:38;;;;;;;57.95;36.85;;;7.90;99.90;;;;;;4918379;28;92690;-35
2022/12/21 10:45:05;;;;;;;59.35;37.20;;;8.00;99.90;;;;;;4918773;28;94743;-33
2022/12/21 10:47:31;;;;;;;67.85;37.40;;;8.00;99.90;;;;;;4917677;28;94545;-32
2022/12/21 10:50:06;;;;;;;67.00;35.97;;;8.00;99.90;;;;;;4918328;28;92485;-32
2022/12/21 10:52:41;;;;;;;63.65;38.42;;;8.10;99.90;;;;;;4917909;28;93987;-32
2022/12/21 10:55:34;;;;;;;66.55;36.97;;;8.10;99.90;;;;;;4918569;28;95155;-32
2022/12/21 10:58:21;;;;;;;58.95;36.25;;;8.10;99.90;;;;;;4917437;28;94288;-32
2022/12/21 11:01:00;;;;;;;64.70;34.75;;;8.20;99.90;;;;;;4916886;28;94300;-31
2022/12/21 11:03:28;;;;;;;64.53;34.40;;;8.10;99.90;;;;;;4917598;28;92179;-30
2022/12/21 11:05:55;;;;;;;58.15;38.33;;;8.20;99.90;;;;;;4917149;28;94634;-32
2022/12/21 11:08:30;;;;;;;54.03;33.13;;;8.10;99.90;;;;;;4917204;28;94569;-32
2022/12/21 11:11:01;;;;;;;56.80;32.75;;;8.10;99.90;;;;;;4917489;28;94930;-31
2022/12/21 11:13:31;;;;;;;51.33;32.92;;;8.10;99.90;;;;;;4917737;28;93547;-33
2022/12/21 11:16:01;;;;;;;55.95;33.30;;;8.10;99.90;;;;;;4917384;28;95118;-34
2022/12/21 11:18:33;;;;;;;58.25;32.35;;;8.10;99.90;;;;;;4917820;28;95097;-32
2022/12/21 11:21:00;;;;;;;57.95;34.10;;;8.10;99.90;;;;;;4917630;28;93845;-33
2022/12/21 11:23:27;;;;;;;52.95;30.48;;;8.20;99.90;;;;;;4917819;28;94184;-31
2022/12/21 11:25:54;;;;;;;48.28;29.05;;;8.20;99.90;;;;;;4916136;28;95681;-33
2022/12/21 11:28:21;;;;;;;53.13;33.07;;;8.20;99.90;;;;;;4917497;28;95037;-35
2022/12/21 11:31:05;;;;;;;54.20;32.60;;;8.30;99.90;;;;;;4915639;28;93958;-32
2022/12/21 11:33:30;;;;;;;58.08;34.33;;;8.30;99.90;;;;;;4915790;28;92138;-33
2022/12/21 11:36:07;;;;;;;51.40;31.98;;;8.30;99.90;;;;;;4916330;28;94314;-33
2022/12/21 11:38:37;;;;;;;52.75;30.63;;;8.30;99.90;;;;;;4916238;28;95365;-31
2022/12/21 11:41:28;;;;;;;58.58;33.40;;;8.40;99.90;;;;;;4916522;28;93310;-33
2022/12/21 11:43:55;;;;;;;68.15;37.30;;;8.40;99.90;;;;;;4916592;28;92767;-34
2022/12/21 11:46:57;;;;;;;57.83;34.00;;;8.50;99.90;;;;;;4916008;28;94813;-34
2022/12/21 11:49:55;;;;;;;48.45;31.17;;;8.60;99.90;;;;;;4910374;28;94681;-33
2022/12/21 11:52:46;;;;;;;60.17;36.13;;;8.70;99.90;;;;;;4919685;28;93115;-33
2022/12/21 11:55:26;;;;;;;65.43;35.63;;;8.70;99.90;;;;;;4919762;28;94186;-32
2022/12/21 11:58:12;;;;;;;55.95;33.08;;;8.80;99.90;;;;;;4918929;28;94778;-32
2022/12/21 12:01:10;;;;;;;58.53;35.75;;;8.80;99.90;;;;;;4919670;28;93526;-31
2022/12/21 12:04:03;;;;;;;55.45;31.23;;;8.80;99.90;;;;;;4920331;28;93519;-31
2022/12/21 12:06:47;;;;;;;59.65;34.47;;;8.80;99.90;;;;;;4917976;28;93942;-33
2022/12/21 12:09:25;;;;;;;57.58;33.95;;;8.80;99.90;;;;;;4919304;28;95116;-34
2022/12/21 12:11:57;;;;;;;57.60;36.30;;;8.90;99.90;;;;;;4917607;28;94609;-32
2022/12/21 12:14:35;;;;;;;61.67;36.03;;;8.90;99.90;;;;;;4920803;28;93220;-32
2022/12/21 12:17:27;;;;;;;56.88;35.97;;;9.00;99.90;;;;;;4928181;28;93323;-34
2022/12/21 12:20:14;;;;;;;63.20;38.60;;;9.00;99.90;;;;;;4922656;28;95477;-34
2022/12/21 12:22:53;;;;;;;62.45;36.47;;;9.00;99.90;;;;;;4927113;28;95938;-32
2022/12/21 12:25:37;;;;;;;62.60;39.33;;;9.00;99.90;;;;;;4929034;28;92436;-32
2022/12/21 12:31:28;;;;;;;64.30;37.83;;;8.90;99.90;;;;;;5013148;28;89635;-41
2022/12/21 12:34:26;;;;;;;62.92;35.50;;;8.80;99.90;;;;;;5004883;28;88972;-39
2022/12/21 12:37:36;;;;;;;55.33;36.80;;;8.80;99.90;;;;;;4993585;28;88159;-39
2022/12/21 12:40:35;;;;;;;67.55;38.03;;;8.80;99.90;;;;;;4995066;28;89802;-40
2022/12/21 12:43:13;;;;;;;65.93;38.15;;;8.70;99.90;;;;;;4988777;28;89620;-42
2022/12/21 12:45:46;;;;;;;62.07;40.60;;;8.70;99.90;;;;;;4996997;28;89415;-41
2022/12/21 12:48:14;;;;;;;63.08;37.42;;;8.60;99.90;;;;;;4998733;28;90021;-43
2022/12/21 12:50:49;;;;;;;61.80;35.10;;;8.60;99.90;;;;;;4995823;28;90219;-39
2022/12/21 12:53:17;;;;;;;61.83;38.03;;;8.60;99.90;;;;;;5000860;28;89309;-41
2022/12/21 12:55:47;;;;;;;58.35;36.53;;;8.60;99.90;;;;;;5000137;28;87710;-38
2022/12/21 12:58:16;;;;;;;63.35;38.35;;;8.50;99.90;;;;;;4998190;28;89455;-40
2022/12/21 13:01:03;;;;;;;;;;;8.60;99.90;;;;;;4997141;28;90303;-41
2022/12/21 13:04:06;;;;;;;60.45;37.65;;;8.50;99.90;;;;;;4998146;28;91094;-41
2022/12/21 13:06:37;;;;;;;66.38;38.63;;;8.50;99.90;;;;;;4995861;28;89109;-40
2022/12/21 13:09:11;;;;;;;66.45;37.30;;;8.50;99.90;;;;;;4982446;28;87711;-38
2022/12/21 13:12:16;;;;;;;67.00;37.22;;;8.50;99.90;;;;;;4996128;28;90103;-36
2022/12/21 13:14:52;;;;;;;72.45;38.40;;;8.50;99.90;;;;;;4986462;28;88665;-43